Latest Weather Observations for Young

IDN60801

Issued at 7:02 pm EDT Wednesday 22 February 2017 (issued every 30 minutes, with the page automatically refreshed every 10 minutes)

About weather observations | Map of weather stations | Latest weather observations for NSW | Other Formats
Station Details ID: 073138 Name: YOUNG AIRPORT Lat: -34.25 Lon: 148.25 Height: 379.6 m
Data from the previous 72 hours. | See also: Recent months at Young
Date/Time
EDT
Temp
°C
App
Temp
°C
Dew
Point
°C
Rel
Hum
%
Delta-T
°C
Wind Press
QNH
hPa
Press
MSL
hPa
Rain since
9am
mm
Dir  Spd
km/h
Gust
km/h
Spd
kts
Gust
kts
22/07:00pm 31.5 27.2 3.5 17 14.6 N 15 19 8 10 1014.7 1012.8 0.0
22/06:30pm 32.3 28.4 3.3 16 15.1 N 13 24 7 13 1014.7 1012.8 0.0
22/06:00pm 32.4 28.3 2.5 15 15.4 N 13 22 7 12 1014.7 1012.8 0.0
22/05:30pm 32.9 29.3 2.9 15 15.6 NNW 11 19 6 10 1014.8 1012.9 0.0
22/05:00pm 33.1 29.1 3.0 15 15.7 N 13 22 7 12 1015.0 1013.1 0.0
22/04:30pm 33.3 30.3 4.1 16 15.5 SW 9 19 5 10 1015.3 1013.5 0.0
22/04:00pm 33.1 29.5 4.8 17 15.2 WNW 13 24 7 13 1015.6 1013.8 0.0
22/03:30pm 32.5 28.6 3.5 16 15.2 N 13 20 7 11 1016.1 1014.3 0.0
22/03:00pm 31.6 27.2 2.7 16 14.8 NW 15 28 8 15 1016.6 1014.8 0.0
22/02:30pm 32.2 29.1 5.7 19 14.4 NW 11 19 6 10 1016.9 1015.1 0.0
22/02:00pm 32.1 28.8 6.3 20 14.1 NW 13 22 7 12 1017.5 1015.6 0.0
22/01:30pm 30.2 25.8 4.8 20 13.4 NNW 17 24 9 13 1017.9 1016.1 0.0
22/01:00pm 30.3 25.7 5.6 21 13.2 NNW 19 30 10 16 1018.1 1016.3 0.0
22/12:30pm 30.0 25.6 4.6 20 13.4 NW 17 24 9 13 1018.4 1016.6 0.0
22/12:00pm 29.5 25.4 8.0 26 11.9 NNW 19 28 10 15 1018.8 1017.0 0.0
22/11:30am 28.4 25.3 11.5 35 9.9 N 19 32 10 17 1019.3 1017.5 0.0
22/11:00am 26.4 23.2 11.3 39 8.7 N 19 28 10 15 1019.6 1017.8 0.0
22/10:30am 25.8 22.6 11.2 40 8.4 NNE 19 28 10 15 1019.7 1017.9 0.0
22/10:00am 23.9 20.7 11.3 45 7.2 NE 19 24 10 13 1019.9 1018.2 0.0
22/09:30am 22.6 20.1 12.3 52 5.9 NE 17 24 9 13 1020.0 1018.3 0.0
22/09:00am 21.1 19.4 12.5 58 4.9 NE 13 20 7 11 1020.1 1018.4 0.0
22/08:30am 17.2 17.0 12.9 76 2.4 S 6 9 3 5 1020.0 1018.3 0.0
22/08:00am 13.7 13.1 11.6 87 1.1 SSE 6 7 3 4 1019.8 1018.0 0.0
22/07:30am 10.9 9.8 10.0 94 0.5 SSW 6 7 3 4 1019.5 1017.7 0.0
22/07:00am 9.5 8.0 8.3 92 0.6 S 6 7 3 4 1019.2 1017.4 0.0
22/06:30am 9.9 8.5 8.8 93 0.6 S 6 7 3 4 1018.7 1016.9 0.0
22/06:00am 10.0 9.7 8.6 91 0.7 CALM 0 0 0 0 1018.4 1016.6 0.0
22/05:30am 11.4 10.3 10.5 94 0.5 SW 7 7 4 4 1018.3 1016.5 0.0
22/05:00am 10.9 9.7 9.5 91 0.7 SW 6 7 3 4 1018.1 1016.3 0.0
22/04:30am 11.2 9.7 9.1 87 1.1 SW 7 9 4 5 1018.0 1016.2 0.0
22/04:00am 12.8 11.3 10.5 86 1.2 SSW 9 11 5 6 1017.9 1016.1 0.0
22/03:30am 13.6 12.3 11.1 85 1.3 SSW 9 9 5 5 1017.9 1016.1 0.0
22/03:00am 13.1 11.8 9.9 81 1.7 SSW 7 11 4 6 1018.1 1016.3 0.0
22/02:30am 12.7 11.2 9.3 80 1.8 SSW 7 11 4 6 1018.2 1016.4 0.0
22/02:00am 13.3 12.5 9.5 78 2.0 S 4 11 2 6 1018.3 1016.5 0.0
22/01:30am 13.7 13.4 8.5 71 2.7 CALM 0 0 0 0 1018.5 1016.7 0.0
22/01:00am 15.5 13.1 10.1 70 2.9 SSW 13 15 7 8 1018.7 1016.9 0.0
22/12:30am 11.6 9.3 4.6 62 3.2 SSW 6 9 3 5 1018.9 1017.1 0.0
22/12:00am 11.4 9.2 3.2 57 3.7 SSW 4 9 2 5 1018.9 1017.1 0.0
 
Date/Time
EDT
Temp
°C
App
Temp
°C
Dew
Point
°C
Rel
Hum
%
Delta-T
°C
Wind Press
QNH
hPa
Press
MSL
hPa
Rain since
9am
mm
Dir  Spd
km/h
Gust
km/h
Spd
kts
Gust
kts
21/11:30pm 9.7 6.6 3.7 66 2.7 SSW 9 9 5 5 1019.0 1017.2 0.0
21/11:00pm 11.0 8.3 3.5 60 3.4 SSW 7 9 4 5 1018.8 1017.0 0.0
21/10:30pm 12.0 9.2 3.0 54 4.0 S 7 9 4 5 1019.0 1017.2 0.0
21/10:00pm 12.6 9.4 3.3 53 4.2 S 9 11 5 6 1018.8 1017.0 0.0
21/09:30pm 13.9 11.3 3.1 48 4.9 SSW 6 7 3 4 1018.6 1016.8 0.0
21/09:00pm 14.9 11.9 2.1 42 5.8 SSW 7 9 4 5 1018.3 1016.5 0.0
21/08:30pm 17.6 14.9 2.4 36 7.1 SSW 6 9 3 5 1018.1 1016.3 0.0
21/08:00pm 20.3 17.4 1.2 28 8.8 SW 6 9 3 5 1017.7 1015.9 0.0
21/07:30pm 24.7 20.4 -2.0 17 12.0 SSW 11 13 6 7 1017.6 1015.7 0.0
21/07:00pm 25.8 21.4 -2.8 15 12.8 SSE 11 15 6 8 1017.2 1015.4 0.0
21/06:30pm 26.4 21.5 -3.2 14 13.2 SSW 13 20 7 11 1017.0 1015.2 0.0
21/06:00pm 27.0 22.9 -2.7 14 13.4 SW 9 15 5 8 1016.9 1015.1 0.0
21/05:30pm 26.9 22.5 -2.8 14 13.4 SSW 11 20 6 11 1017.1 1015.3 0.0
21/05:00pm 27.2 23.2 -2.6 14 13.5 SSW 9 15 5 8 1017.1 1015.3 0.0
21/04:30pm 27.5 23.7 -0.5 16 13.3 SSE 9 20 5 11 1017.3 1015.5 0.0
21/04:00pm 26.3 21.5 -2.4 15 13.0 SSE 13 24 7 13 1017.5 1015.6 0.0
21/03:30pm 26.1 21.4 -1.7 16 12.7 ESE 13 19 7 10 1017.8 1016.0 0.0
21/03:00pm 25.6 21.6 -2.1 16 12.5 NE 9 15 5 8 1018.1 1016.3 0.0
21/02:30pm 25.3 20.8 0.0 19 11.9 S 13 22 7 12 1018.7 1016.9 0.0
21/02:00pm 24.9 21.3 0.4 20 11.5 SW 9 17 5 9 1018.8 1017.0 0.0
21/01:30pm 23.4 18.9 -0.1 21 10.9 SSW 13 20 7 11 1019.3 1017.5 0.0
21/01:00pm 22.9 18.5 0.1 22 10.5 S 13 26 7 14 1019.7 1017.9 0.0
21/12:30pm 22.6 18.0 1.6 25 10.0 SSW 15 26 8 14 1020.1 1018.4 0.0
21/12:00pm 21.5 17.2 1.2 26 9.5 SSE 13 24 7 13 1020.6 1018.8 0.0
21/11:30am 22.1 18.9 2.8 28 9.3 SSE 9 19 5 10 1021.0 1019.2 0.0
21/11:00am 21.8 18.3 3.5 30 8.9 SE 11 19 6 10 1021.3 1019.5 0.0
21/10:30am 20.5 16.7 3.7 33 8.2 E 13 24 7 13 1021.3 1019.5 0.0
21/10:00am 19.0 15.1 3.6 36 7.4 ESE 13 20 7 11 1021.3 1019.5 0.0
21/09:30am 18.2 14.5 4.4 40 6.7 E 13 17 7 9 1021.3 1019.5 0.0
21/09:00am 15.4 14.3 6.7 56 4.3 SSE 2 7 1 4 1021.0 1019.2 0.0
21/08:30am 11.8 9.7 5.9 67 2.8 S 6 9 3 5 1020.7 1018.9 0.0
21/08:00am 8.6 7.2 5.4 80 1.5 SSW 2 7 1 4 1020.5 1018.7 0.0
21/07:30am 5.7 3.2 3.5 86 0.9 SSW 6 7 3 4 1019.9 1018.2 0.0
21/07:00am 3.5 0.7 2.2 91 0.5 SW 6 7 3 4 1019.4 1017.6 0.0
21/06:30am 4.0 1.0 2.2 88 0.7 S 7 9 4 5 1018.9 1017.1 0.0
21/06:00am 4.2 1.5 2.4 88 0.7 SW 6 7 3 4 1018.6 1016.8 0.0
21/05:30am 4.4 1.7 2.6 88 0.7 S 6 7 3 4 1018.4 1016.6 0.0
21/05:00am 4.6 1.7 2.8 88 0.7 SSW 7 7 4 4 1018.3 1016.5 0.0
21/04:30am 4.6 1.7 2.6 87 0.8 S 7 9 4 5 1018.2 1016.4 0.0
21/04:00am 5.5 2.3 3.0 84 1.1 S 9 9 5 5 1018.1 1016.3 0.0
21/03:30am 5.7 3.1 3.2 84 1.1 SW 6 7 3 4 1018.1 1016.3 0.0
21/03:00am 5.8 3.0 3.3 84 1.1 SSW 7 9 4 5 1018.2 1016.4 0.0
21/02:30am 6.1 3.6 3.9 86 1.0 SSE 6 7 3 4 1018.4 1016.6 0.0
21/02:00am 6.2 3.4 3.4 82 1.2 SW 7 9 4 5 1018.5 1016.7 0.0
21/01:30am 7.3 4.9 4.3 81 1.3 SSW 6 7 3 4 1018.7 1016.9 0.0
21/01:00am 7.3 4.8 3.5 77 1.6 S 6 7 3 4 1018.9 1017.1 0.0
21/12:30am 7.8 5.3 4.0 77 1.7 S 6 7 3 4 1018.7 1016.9 0.0
21/12:00am 8.0 5.5 3.7 74 1.9 SSW 6 7 3 4 1018.7 1016.9 0.0
 
Date/Time
EDT
Temp
°C
App
Temp
°C
Dew
Point
°C
Rel
Hum
%
Delta-T
°C
Wind Press
QNH
hPa
Press
MSL
hPa
Rain since
9am
mm
Dir  Spd
km/h
Gust
km/h
Spd
kts
Gust
kts
20/11:30pm 8.2 5.7 3.5 72 2.1 SW 6 9 3 5 1018.6 1016.8 0.0
20/11:00pm 9.5 7.0 3.9 68 2.5 SSW 6 7 3 4 1018.5 1016.7 0.0
20/10:30pm 9.7 6.9 3.4 65 2.8 SW 7 7 4 4 1018.3 1016.5 0.0
20/10:00pm 11.2 8.4 3.3 58 3.5 S 7 9 4 5 1017.9 1016.1 0.0
20/09:30pm 12.1 10.3 3.3 55 4.0 SSW 2 6 1 3 1017.5 1015.6 0.0
20/09:00pm 13.6 10.4 3.1 49 4.8 SSW 9 9 5 5 1016.8 1015.0 0.0
20/08:30pm 14.6 10.9 2.5 44 5.5 SSW 11 13 6 7 1016.2 1014.4 0.0
20/08:00pm 17.2 13.0 1.6 35 7.1 SW 13 15 7 8 1015.6 1013.8 0.0
20/07:30pm 18.8 14.4 0.4 29 8.3 SW 13 15 7 8 1015.2 1013.3 0.0
20/07:00pm 19.8 14.6 0.3 27 8.8 SW 17 24 9 13 1014.7 1012.8 0.0
20/06:30pm 20.7 16.2 -0.6 24 9.5 WSW 13 20 7 11 1014.3 1012.5 0.0
20/06:00pm 20.8 15.0 0.1 25 9.4 SW 20 30 11 16 1014.0 1012.2 0.0
20/05:30pm 22.1 17.4 1.2 25 9.8 WSW 15 24 8 13 1013.8 1012.0 0.0
20/05:00pm 21.5 16.2 -0.5 23 9.9 W 17 28 9 15 1013.5 1011.7 0.0
20/04:30pm 22.2 17.1 0.7 24 10.0 SW 17 30 9 16 1013.3 1011.5 0.0
20/04:00pm 21.4 16.0 -1.2 22 10.1 W 17 30 9 16 1013.4 1011.6 0.0
20/03:30pm 21.4 16.7 0.6 25 9.6 W 15 24 8 13 1013.3 1011.5 0.0
20/03:00pm 21.2 16.0 0.4 25 9.5 WSW 17 33 9 18 1013.5 1011.7 0.0
20/02:30pm 20.2 15.5 0.6 27 9.0 WSW 15 28 8 15 1013.6 1011.8 0.0
20/02:00pm 20.6 15.5 1.0 27 9.1 W 17 35 9 19 1013.7 1011.9 0.0
20/01:30pm 20.3 15.6 3.1 32 8.3 SW 17 28 9 15 1013.9 1012.1 0.0
20/01:00pm 19.0 14.4 1.5 31 8.1 WSW 15 28 8 15 1014.0 1012.2 0.0
20/12:30pm 18.1 13.8 3.2 37 7.1 W 15 26 8 14 1014.3 1012.5 0.0
20/12:00pm 17.3 12.2 2.9 38 6.7 WSW 19 32 10 17 1014.4 1012.6 0.0
20/11:30am 16.8 12.2 3.8 42 6.2 SW 17 30 9 16 1014.5 1012.7 0.0
20/11:00am 16.0 11.5 4.4 46 5.5 WSW 17 28 9 15 1015.0 1013.1 0.0
20/10:30am 15.0 10.4 3.8 47 5.2 WSW 17 24 9 13 1015.0 1013.1 0.0
20/10:00am 13.8 9.5 5.4 57 4.0 SW 17 24 9 13 1014.9 1013.0 0.0
20/09:30am 13.2 10.1 5.6 60 3.6 WSW 11 20 6 11 1015.0 1013.1 0.0
20/09:00am 12.6 9.7 6.6 67 2.9 WSW 11 17 6 9 1014.9 1013.0 0.0
20/08:30am 11.3 8.9 6.8 74 2.2 WSW 9 15 5 8 1014.7 1012.8 0.0
20/08:00am 10.0 8.1 6.5 79 1.7 NNW 6 7 3 4 1014.1 1012.3 0.0
20/07:30am 7.5 6.5 5.5 87 0.9 CALM 0 0 0 0 1013.9 1012.1 0.0
20/07:00am 5.4 4.1 3.9 90 0.6 CALM 0 0 0 0 1013.4 1011.6 0.0
20/06:30am 5.3 2.8 3.8 90 0.6 S 6 9 3 5 1012.9 1011.0 0.0
20/06:00am 5.8 4.5 4.1 89 0.7 CALM 0 0 0 0 1012.6 1010.7 0.0
20/05:30am 6.3 5.0 4.0 85 1.0 CALM 0 2 0 1 1012.2 1010.3 0.0
20/05:00am 7.5 5.9 4.6 82 1.3 WNW 2 6 1 3 1011.8 1010.0 0.0
20/04:30am 8.8 6.6 5.2 78 1.7 N 6 7 3 4 1011.6 1009.8 0.0
20/04:00am 8.8 7.6 4.8 76 1.8 CALM 0 0 0 0 1011.5 1009.7 0.0
20/03:30am 9.9 7.6 4.7 70 2.4 WSW 6 7 3 4 1011.3 1009.5 0.0
20/03:00am 11.0 7.4 5.1 67 2.8 SW 13 17 7 9 1011.4 1009.6 0.0
20/02:30am 11.8 5.6 6.3 69 2.6 SW 28 41 15 22 1011.7 1009.9 0.0
20/02:00am 12.9 8.3 8.2 73 2.4 SW 22 33 12 18 1011.3 1009.5 0.0
20/01:30am 14.1 8.9 7.2 63 3.4 SW 24 43 13 23 1011.1 1009.3 0.0
20/01:28am 14.3 9.3 6.6 60 3.8 SW 22 43 12 23 1011.1 1009.3 0.0
20/01:00am 13.9 10.4 3.4 49 4.8 WSW 11 19 6 10 1010.9 1009.1 0.0
20/12:30am 14.2 11.3 2.8 46 5.2 WNW 7 13 4 7 1010.6 1008.8 0.0
20/12:00am 13.9 11.0 2.5 46 5.2 WNW 7 15 4 8 1010.6 1008.8 0.0
 
Date/Time
EDT
Temp
°C
App
Temp
°C
Dew
Point
°C
Rel
Hum
%
Delta-T
°C
Wind Press
QNH
hPa
Press
MSL
hPa
Rain since
9am
mm
Dir  Spd
km/h
Gust
km/h
Spd
kts
Gust
kts
19/11:30pm 13.7 10.7 2.3 46 5.1 W 7 9 4 5 1010.7 1008.9 0.0
19/11:00pm 14.1 11.2 2.4 45 5.3 W 7 9 4 5 1010.8 1009.0 0.0
19/10:30pm 14.2 11.4 2.1 44 5.4 W 6 9 3 5 1010.7 1008.9 0.0
19/10:00pm 14.0 11.1 1.6 43 5.5 W 6 9 3 5 1010.6 1008.8 0.0
19/09:30pm 15.2 12.3 1.4 39 6.1 W 6 11 3 6 1010.3 1008.4 0.0
19/09:00pm 16.3 13.2 1.2 36 6.8 W 7 11 4 6 1010.0 1008.1 0.0
19/08:30pm 17.0 13.8 0.6 33 7.3 W 7 13 4 7 1009.7 1007.8 0.0
19/08:00pm 18.5 14.5 0.2 29 8.2 W 11 17 6 9 1009.5 1007.6 0.0
19/07:30pm 19.3 14.8 -0.1 27 8.7 W 13 26 7 14 1009.0 1007.2 0.0

Other Formats:

Comma delimited format used in spreadsheet applications
http://www.bom.gov.au/fwo/IDN60801/IDN60801.94712.axf

JavaScript Object Notation format (JSON) in row-major order
http://www.bom.gov.au/fwo/IDN60801/IDN60801.94712.json